createdAt,value
2023-05-02T00:00:11.823Z,46.49
2023-05-02T00:02:44.730Z,47.08
2023-05-02T00:05:40.121Z,47.74
2023-05-02T00:08:17.095Z,47.42
2023-05-02T00:11:02.363Z,46.88
2023-05-02T00:13:50.528Z,47.31
2023-05-02T00:16:56.386Z,47.35
2023-05-02T00:19:41.467Z,47.18
2023-05-02T00:22:38.570Z,47.42
2023-05-02T00:28:55.915Z,47.73
2023-05-02T00:31:27.907Z,47.71
2023-05-02T00:34:31.770Z,47.28
2023-05-02T00:37:48.969Z,47.76
2023-05-02T00:41:05.776Z,47.71
2023-05-02T00:46:53.397Z,47.05
2023-05-02T00:49:38.024Z,46.99
2023-05-02T00:52:31.923Z,47.55
2023-05-02T01:01:17.809Z,47.71
2023-05-02T01:04:01.263Z,47.17
2023-05-02T01:07:24.388Z,47.71
2023-05-02T01:10:19.544Z,47.44
2023-05-02T01:16:08.123Z,47.80
2023-05-02T01:18:45.586Z,47.69
2023-05-02T01:21:18.761Z,47.42
2023-05-02T01:24:10.802Z,48.01
2023-05-02T01:27:19.459Z,46.97
2023-05-02T01:30:09.822Z,47.50
2023-05-02T01:32:46.251Z,47.31
2023-05-02T01:35:21.445Z,47.73
2023-05-02T01:38:44.568Z,47.92
2023-05-02T01:41:19.970Z,47.06
2023-05-02T01:44:00.013Z,47.32
2023-05-02T01:46:55.458Z,47.84
2023-05-02T01:49:38.752Z,47.54
2023-05-02T01:52:13.037Z,47.64
2023-05-02T01:55:01.937Z,47.80
2023-05-02T01:57:36.527Z,47.79
2023-05-02T02:00:13.807Z,47.17
2023-05-02T02:02:58.315Z,47.88
2023-05-02T02:06:08.937Z,47.53
2023-05-02T02:08:47.930Z,47.43
2023-05-02T02:12:23.660Z,46.90
2023-05-02T02:15:39.870Z,47.80
2023-05-02T02:18:42.716Z,47.42
2023-05-02T02:21:19.684Z,47.38
2023-05-02T02:23:56.133Z,47.52
2023-05-02T02:26:28.916Z,47.93
2023-05-02T02:29:02.614Z,47.88
2023-05-02T02:31:36.171Z,48.01
2023-05-02T02:34:29.148Z,47.57
2023-05-02T02:37:08.306Z,47.61
2023-05-02T02:40:21.887Z,47.99
2023-05-02T02:44:02.068Z,47.17
2023-05-02T02:47:02.832Z,47.21
2023-05-02T02:50:01.784Z,47.35
2023-05-02T02:53:16.262Z,47.92
2023-05-02T02:56:18.945Z,48.14
2023-05-02T02:59:19.298Z,47.66
2023-05-02T03:02:29.564Z,47.60
2023-05-02T03:05:22.696Z,47.73
2023-05-02T03:07:55.664Z,47.07
2023-05-02T03:13:18.691Z,47.83
2023-05-02T03:16:35.243Z,47.58
2023-05-02T03:19:08.445Z,47.17
2023-05-02T03:21:44.080Z,47.22
2023-05-02T03:24:21.215Z,47.26
2023-05-02T03:26:59.179Z,46.95
2023-05-02T03:29:37.900Z,47.95
2023-05-02T03:32:10.669Z,47.89
2023-05-02T03:34:49.631Z,48.13
2023-05-02T03:37:22.105Z,47.69
2023-05-02T03:39:54.982Z,47.70
2023-05-02T03:43:11.594Z,47.71
2023-05-02T03:45:44.248Z,48.10
2023-05-02T03:48:17.201Z,47.22
2023-05-02T03:50:51.151Z,47.67
2023-05-02T03:53:24.224Z,47.17
2023-05-02T03:55:57.227Z,47.70
2023-05-02T04:01:25.219Z,47.40
2023-05-02T04:04:01.145Z,47.13
2023-05-02T04:06:53.679Z,47.71
2023-05-02T04:09:41.201Z,47.66
2023-05-02T04:12:16.016Z,47.55
2023-05-02T04:14:48.596Z,47.05
2023-05-02T04:17:30.061Z,48.02
2023-05-02T04:20:05.229Z,47.15
2023-05-02T04:25:28.282Z,47.50
2023-05-02T04:28:12.884Z,47.43
2023-05-02T04:31:03.343Z,47.48
2023-05-02T04:33:36.451Z,47.27
2023-05-02T04:36:34.776Z,47.46
2023-05-02T04:39:26.064Z,47.45
2023-05-02T04:42:01.729Z,48.47
2023-05-02T04:44:35.500Z,48.03
2023-05-02T04:47:27.480Z,47.57
2023-05-02T04:50:38.410Z,47.27
2023-05-02T04:53:22.244Z,47.61
2023-05-02T04:56:07.745Z,47.68
2023-05-02T04:58:43.389Z,47.60
2023-05-02T05:01:34.075Z,47.17
2023-05-02T05:04:15.379Z,47.61
2023-05-02T05:07:08.667Z,47.62
2023-05-02T05:09:56.698Z,47.43
2023-05-02T05:12:29.299Z,47.36
2023-05-02T05:15:01.946Z,47.74
2023-05-02T05:17:34.813Z,47.75
2023-05-02T05:20:25.257Z,47.76
2023-05-02T05:23:48.719Z,47.45
2023-05-02T05:26:25.313Z,47.06
2023-05-02T05:28:58.019Z,48.03
2023-05-02T05:31:31.734Z,47.20
2023-05-02T05:34:04.755Z,47.96
2023-05-02T05:36:38.594Z,47.35
2023-05-02T05:39:13.902Z,47.78
2023-05-02T05:41:46.660Z,47.95
2023-05-02T05:44:25.898Z,47.24
2023-05-02T05:46:58.695Z,47.94
2023-05-02T05:49:31.686Z,47.86
2023-05-02T05:52:07.269Z,47.90
2023-05-02T05:55:04.466Z,47.25
2023-05-02T05:57:37.050Z,47.21
2023-05-02T06:00:28.994Z,47.26
2023-05-02T06:03:01.912Z,46.73
2023-05-02T06:05:41.061Z,47.27
2023-05-02T06:08:29.983Z,48.21
2023-05-02T06:11:02.703Z,47.07
2023-05-02T06:13:35.337Z,47.14
2023-05-02T06:16:24.247Z,47.00
2023-05-02T06:18:56.984Z,47.16
2023-05-02T06:24:17.998Z,47.03
2023-05-02T06:26:56.506Z,46.91
2023-05-02T06:29:31.178Z,47.30
2023-05-02T06:32:04.509Z,47.68
2023-05-02T06:34:38.256Z,46.97
2023-05-02T06:37:20.417Z,47.05
2023-05-02T06:39:53.035Z,46.92
2023-05-02T06:42:43.261Z,46.47
2023-05-02T06:45:23.609Z,47.69
2023-05-02T06:47:59.719Z,46.98
2023-05-02T06:50:35.906Z,47.15
2023-05-02T06:53:08.510Z,47.53
2023-05-02T06:55:56.906Z,46.95
2023-05-02T06:58:38.548Z,47.07
2023-05-02T07:01:26.499Z,46.64
2023-05-02T07:06:58.013Z,46.45
2023-05-02T07:09:30.804Z,46.82
2023-05-02T07:12:06.048Z,46.80
2023-05-02T07:14:42.197Z,46.88
2023-05-02T07:17:15.778Z,47.18
2023-05-02T07:19:48.572Z,46.19
2023-05-02T07:22:34.724Z,46.63
2023-05-02T07:25:10.586Z,46.59
2023-05-02T07:27:43.176Z,46.63
2023-05-02T07:30:15.699Z,46.93
2023-05-02T07:32:48.336Z,46.25
2023-05-02T07:35:21.014Z,47.48
2023-05-02T07:38:06.205Z,46.52
2023-05-02T07:40:41.610Z,46.14
2023-05-02T07:43:14.400Z,47.49
2023-05-02T07:45:46.918Z,47.42
2023-05-02T07:48:20.386Z,47.06
2023-05-02T07:50:52.801Z,46.44
2023-05-02T07:53:28.254Z,46.64
2023-05-02T07:56:01.064Z,46.63
2023-05-02T07:58:38.086Z,46.72
2023-05-02T08:01:24.002Z,46.08
2023-05-02T08:03:56.786Z,47.25
2023-05-02T08:06:35.063Z,46.57
2023-05-02T08:09:07.932Z,46.76
2023-05-02T08:11:40.555Z,46.70
2023-05-02T08:14:29.495Z,45.99
2023-05-02T08:17:02.266Z,46.30
2023-05-02T08:19:44.429Z,46.07
2023-05-02T08:22:29.068Z,46.49
2023-05-02T08:25:01.716Z,46.78
2023-05-02T08:27:35.554Z,47.01
2023-05-02T08:30:09.143Z,46.35
2023-05-02T08:33:08.560Z,46.59
2023-05-02T08:35:41.267Z,46.90
2023-05-02T08:38:33.487Z,47.03
2023-05-02T08:41:19.216Z,46.33
2023-05-02T08:43:52.956Z,45.91
2023-05-02T08:46:26.715Z,47.00
2023-05-02T08:49:00.462Z,46.79
2023-05-02T08:51:36.681Z,46.20
2023-05-02T08:54:10.052Z,46.38
2023-05-02T08:56:42.488Z,46.78
2023-05-02T08:59:15.171Z,46.75
2023-05-02T09:01:52.807Z,45.69
2023-05-02T09:04:30.754Z,46.13
2023-05-02T09:07:03.383Z,45.67
2023-05-02T09:09:36.476Z,46.17
2023-05-02T09:12:13.361Z,46.34
2023-05-02T09:14:45.917Z,46.20
2023-05-02T09:17:18.491Z,46.01
2023-05-02T09:20:01.264Z,45.81
2023-05-02T09:22:34.664Z,46.58
2023-05-02T09:25:07.572Z,46.17
2023-05-02T09:27:56.964Z,46.19
2023-05-02T09:30:29.576Z,46.01
2023-05-02T09:33:02.117Z,45.88
2023-05-02T09:35:34.569Z,45.55
2023-05-02T09:38:19.733Z,45.77
2023-05-02T09:40:58.394Z,45.92
2023-05-02T09:43:31.952Z,45.58
2023-05-02T09:46:13.123Z,46.41
2023-05-02T09:48:56.711Z,45.57
2023-05-02T09:51:29.162Z,45.53
2023-05-02T09:54:01.730Z,45.81
2023-05-02T09:56:56.311Z,45.09
2023-05-02T09:59:28.809Z,45.83
2023-05-02T10:02:07.387Z,45.52
2023-05-02T10:04:40.628Z,45.07
2023-05-02T10:07:14.562Z,46.13
2023-05-02T10:09:49.162Z,45.32
2023-05-02T10:12:32.697Z,45.95
2023-05-02T10:15:09.451Z,45.31
2023-05-02T10:17:48.304Z,45.43
2023-05-02T10:20:28.907Z,46.02
2023-05-02T10:23:08.458Z,45.73
2023-05-02T10:26:00.037Z,45.97
2023-05-02T10:28:33.292Z,45.17
2023-05-02T10:31:09.411Z,45.73
2023-05-02T10:33:42.306Z,44.98
2023-05-02T10:36:15.490Z,45.90
2023-05-02T10:38:48.456Z,45.51
2023-05-02T10:41:26.826Z,45.48
2023-05-02T10:44:02.399Z,45.92
2023-05-02T10:46:37.516Z,45.70
2023-05-02T10:49:12.786Z,45.27
2023-05-02T10:51:45.466Z,45.76
2023-05-02T10:54:18.178Z,45.43
2023-05-02T10:57:06.315Z,45.52
2023-05-02T11:00:25.171Z,45.35
2023-05-02T11:02:59.245Z,45.43
2023-05-02T11:06:13.850Z,44.94
2023-05-02T11:08:46.610Z,45.38
2023-05-02T11:11:59.067Z,45.04
2023-05-02T11:14:34.266Z,44.72
2023-05-02T11:17:21.188Z,45.21
2023-05-02T11:19:57.551Z,44.83
2023-05-02T11:25:34.664Z,44.42
2023-05-02T11:28:28.357Z,44.49
2023-05-02T11:34:04.598Z,44.97
2023-05-02T11:36:37.117Z,45.41
2023-05-02T11:39:58.920Z,44.46
2023-05-02T11:42:32.415Z,44.78
2023-05-02T11:45:18.546Z,45.09
2023-05-02T11:47:53.239Z,44.70
2023-05-02T11:50:27.698Z,44.70
2023-05-02T11:53:00.315Z,45.04
2023-05-02T11:55:32.956Z,44.76
2023-05-02T11:58:30.650Z,44.04
2023-05-02T12:01:14.172Z,44.58
2023-05-02T12:03:48.506Z,44.63
2023-05-02T12:06:26.965Z,43.83
2023-05-02T12:09:24.706Z,44.61
2023-05-02T12:12:07.417Z,44.38
2023-05-02T12:14:41.604Z,44.39
2023-05-02T12:17:15.153Z,44.19
2023-05-02T12:19:50.302Z,44.08
2023-05-02T12:22:36.849Z,43.89
2023-05-02T12:25:14.586Z,44.11
2023-05-02T12:28:08.489Z,43.57
2023-05-02T12:30:41.810Z,43.87
2023-05-02T12:33:30.634Z,43.93
2023-05-02T12:36:08.353Z,44.13
2023-05-02T12:38:53.383Z,43.91
2023-05-02T12:41:34.922Z,43.77
2023-05-02T12:47:36.666Z,43.92
2023-05-02T12:50:10.566Z,43.82
2023-05-02T12:53:00.281Z,43.91
2023-05-02T12:55:32.845Z,43.83
2023-05-02T12:58:09.878Z,44.16
2023-05-02T13:00:45.442Z,43.67
2023-05-02T13:03:18.957Z,43.50
2023-05-02T13:05:54.481Z,43.52
2023-05-02T13:08:27.146Z,43.57
2023-05-02T13:11:00.008Z,43.68
2023-05-02T13:13:32.683Z,43.39
2023-05-02T13:16:05.708Z,43.35
2023-05-02T13:18:38.338Z,43.59
2023-05-02T13:21:10.920Z,43.85
2023-05-02T13:23:44.363Z,43.20
2023-05-02T13:26:17.144Z,43.46
2023-05-02T13:28:49.882Z,43.16
2023-05-02T13:31:25.439Z,43.43
2023-05-02T13:33:58.020Z,43.25
2023-05-02T13:36:30.691Z,43.00
2023-05-02T13:39:04.431Z,43.23
2023-05-02T13:41:37.333Z,43.18
2023-05-02T13:44:10.068Z,42.99
2023-05-02T13:46:43.181Z,43.30
2023-05-02T13:49:15.897Z,43.00
2023-05-02T13:51:49.726Z,42.95
2023-05-02T13:54:34.548Z,42.96
2023-05-02T13:57:07.238Z,42.84
2023-05-02T13:59:39.699Z,43.08
2023-05-02T14:02:12.158Z,42.94
2023-05-02T14:04:44.942Z,43.00
2023-05-02T14:07:17.637Z,43.19
2023-05-02T14:09:50.130Z,43.17
2023-05-02T14:12:22.970Z,42.94
2023-05-02T14:14:55.615Z,42.86
2023-05-02T14:17:28.233Z,42.79
2023-05-02T14:20:00.976Z,42.76
2023-05-02T14:22:33.779Z,42.63
2023-05-02T14:25:11.240Z,43.10
2023-05-02T14:27:46.643Z,43.14
2023-05-02T14:33:15.078Z,43.16
2023-05-02T14:35:48.830Z,42.83
2023-05-02T14:38:21.757Z,42.84
2023-05-02T14:40:55.007Z,43.20
2023-05-02T14:43:27.647Z,42.69
2023-05-02T14:46:00.218Z,43.16
2023-05-02T14:48:32.920Z,42.99
2023-05-02T14:51:05.836Z,42.88
2023-05-02T14:53:49.351Z,42.85
2023-05-02T14:56:22.401Z,42.60
2023-05-02T14:59:05.234Z,42.56
2023-05-02T15:01:41.225Z,42.50
2023-05-02T15:04:14.290Z,42.65
2023-05-02T15:06:48.134Z,42.56
2023-05-02T15:09:20.787Z,42.23
2023-05-02T15:11:53.851Z,42.36
2023-05-02T15:14:26.431Z,42.57
2023-05-02T15:16:59.125Z,42.67
2023-05-02T15:19:31.609Z,42.52
2023-05-02T15:22:04.255Z,42.55
2023-05-02T15:24:36.790Z,42.06
2023-05-02T15:27:09.584Z,42.43
2023-05-02T15:29:42.130Z,42.58
2023-05-02T15:32:15.004Z,42.59
2023-05-02T15:34:48.192Z,42.54
2023-05-02T15:37:21.028Z,42.07
2023-05-02T15:39:56.072Z,42.13
2023-05-02T15:42:28.673Z,42.34
2023-05-02T15:45:01.666Z,42.08
2023-05-02T15:47:44.898Z,42.11
2023-05-02T15:50:17.895Z,42.57
2023-05-02T15:52:50.990Z,42.39
2023-05-02T15:55:23.550Z,42.35
2023-05-02T15:58:11.671Z,42.23
2023-05-02T16:00:53.535Z,42.53
2023-05-02T16:03:29.440Z,42.41
2023-05-02T16:06:17.634Z,42.46
2023-05-02T16:08:50.260Z,42.30
2023-05-02T16:11:22.902Z,42.03
2023-05-02T16:14:09.460Z,42.10
2023-05-02T16:16:43.309Z,41.96
2023-05-02T16:19:15.930Z,42.13
2023-05-02T16:21:48.575Z,42.04
2023-05-02T16:24:35.942Z,41.74
2023-05-02T16:27:08.667Z,41.71
2023-05-02T16:29:42.013Z,42.18
2023-05-02T16:32:17.676Z,41.93
2023-05-02T16:34:50.473Z,42.05
2023-05-02T16:37:28.207Z,42.17
2023-05-02T16:40:01.211Z,41.80
2023-05-02T16:42:34.506Z,41.83
2023-05-02T16:45:08.127Z,41.71
2023-05-02T16:47:41.176Z,41.99
2023-05-02T16:50:13.665Z,41.97
2023-05-02T16:52:46.155Z,42.13
2023-05-02T16:55:24.658Z,41.77
2023-05-02T16:57:57.127Z,42.06
2023-05-02T17:00:41.196Z,42.15
2023-05-02T17:03:13.814Z,42.00
2023-05-02T17:05:46.512Z,41.92
2023-05-02T17:08:19.028Z,41.71
2023-05-02T17:10:51.737Z,41.97
2023-05-02T17:13:24.484Z,41.77
2023-05-02T17:16:21.782Z,41.96
2023-05-02T17:18:54.303Z,41.68
2023-05-02T17:21:27.910Z,41.83
2023-05-02T17:24:00.506Z,41.92
2023-05-02T17:26:33.268Z,42.02
2023-05-02T17:29:05.797Z,41.75
2023-05-02T17:31:38.707Z,41.97
2023-05-02T17:34:11.429Z,41.72
2023-05-02T17:36:44.650Z,41.68
2023-05-02T17:39:17.504Z,41.44
2023-05-02T17:41:50.391Z,42.21
2023-05-02T17:44:28.017Z,41.53
2023-05-02T17:47:06.853Z,41.72
2023-05-02T17:49:51.308Z,42.16
2023-05-02T17:52:24.127Z,41.98
2023-05-02T17:57:53.934Z,41.78
2023-05-02T18:00:26.642Z,41.94
2023-05-02T18:02:59.249Z,42.35
2023-05-02T18:05:37.484Z,41.70
2023-05-02T18:08:10.010Z,41.52
2023-05-02T18:10:42.870Z,41.77
2023-05-02T18:13:15.381Z,42.27
2023-05-02T18:16:14.853Z,41.83
2023-05-02T18:18:47.605Z,42.18
2023-05-02T18:21:27.034Z,41.65
2023-05-02T18:23:59.762Z,42.23
2023-05-02T18:29:22.824Z,42.06
2023-05-02T18:32:01.575Z,41.58
2023-05-02T18:34:45.857Z,41.67
2023-05-02T18:37:18.355Z,41.88
2023-05-02T18:39:51.369Z,42.41
2023-05-02T18:42:40.373Z,42.44
2023-05-02T18:45:16.233Z,41.80
2023-05-02T18:47:56.581Z,41.96
2023-05-02T18:50:29.236Z,42.29
2023-05-02T18:53:01.882Z,42.20
2023-05-02T18:55:34.530Z,41.77
2023-05-02T18:58:22.682Z,42.55
2023-05-02T19:01:15.707Z,42.51
2023-05-02T19:03:48.824Z,42.82
2023-05-02T19:06:21.742Z,42.54
2023-05-02T19:08:54.465Z,42.90
2023-05-02T19:11:26.983Z,42.87
2023-05-02T19:16:54.983Z,42.35
2023-05-02T19:19:51.072Z,42.98
2023-05-02T19:22:23.707Z,42.59
2023-05-02T19:24:57.589Z,42.44
2023-05-02T19:27:34.889Z,42.65
2023-05-02T19:30:25.589Z,42.90
2023-05-02T19:32:58.355Z,42.68
2023-05-02T19:38:48.711Z,43.13
2023-05-02T19:41:36.389Z,42.95
2023-05-02T19:44:16.105Z,42.81
2023-05-02T19:46:48.718Z,43.24
2023-05-02T19:49:27.307Z,43.38
2023-05-02T19:52:00.759Z,42.80
2023-05-02T19:54:33.649Z,43.24
2023-05-02T20:00:14.353Z,42.40
2023-05-02T20:03:06.447Z,43.23
2023-05-02T20:05:39.113Z,42.82
2023-05-02T20:08:42.714Z,42.62
2023-05-02T20:11:30.928Z,42.98
2023-05-02T20:14:03.542Z,43.33
2023-05-02T20:16:52.440Z,43.27
2023-05-02T20:19:37.923Z,42.83
2023-05-02T20:22:41.491Z,43.75
2023-05-02T20:28:10.090Z,43.11
2023-05-02T20:31:28.171Z,43.19
2023-05-02T20:34:14.918Z,43.00
2023-05-02T20:49:12.014Z,43.54
2023-05-02T20:51:46.578Z,42.86
2023-05-02T20:54:35.121Z,43.21
2023-05-02T20:57:19.152Z,43.13
2023-05-02T20:59:51.750Z,43.97
2023-05-02T21:02:30.840Z,43.35
2023-05-02T21:05:06.225Z,43.20
2023-05-02T21:07:40.577Z,43.37
2023-05-02T21:10:18.908Z,43.23
2023-05-02T21:12:51.507Z,42.86
2023-05-02T21:15:27.228Z,43.14
2023-05-02T21:18:23.005Z,43.44
2023-05-02T21:20:55.648Z,42.99
2023-05-02T21:23:48.133Z,43.63
2023-05-02T21:26:20.923Z,43.79
2023-05-02T21:29:04.908Z,42.95
2023-05-02T21:31:46.405Z,43.49
2023-05-02T21:34:19.098Z,44.47
2023-05-02T21:37:02.616Z,44.08
2023-05-02T21:39:39.065Z,43.52
2023-05-02T21:42:26.165Z,43.61
2023-05-02T21:45:23.962Z,43.83
2023-05-02T21:47:57.826Z,44.17
2023-05-02T21:51:20.911Z,44.22
2023-05-02T21:53:54.016Z,43.60
2023-05-02T21:56:26.822Z,43.69
2023-05-02T21:59:05.592Z,43.43
2023-05-02T22:04:21.909Z,43.65
2023-05-02T22:05:49.480Z,43.74
2023-05-02T22:08:27.077Z,43.69
2023-05-02T22:14:37.176Z,43.45
2023-05-02T22:17:28.919Z,44.62
2023-05-02T22:20:02.971Z,43.37
2023-05-02T22:22:35.823Z,44.63
2023-05-02T22:25:11.459Z,43.93
2023-05-02T22:27:45.903Z,44.24
2023-05-02T22:30:20.665Z,44.48
2023-05-02T22:33:12.104Z,43.91
2023-05-02T22:35:44.726Z,43.91
2023-05-02T22:38:17.497Z,44.74
2023-05-02T22:40:52.951Z,43.53
2023-05-02T22:43:25.662Z,43.79
2023-05-02T22:45:59.082Z,43.34
2023-05-02T22:48:32.035Z,43.83
2023-05-02T22:51:04.774Z,43.72
2023-05-02T22:53:43.193Z,43.35
2023-05-02T22:56:18.995Z,43.59
2023-05-02T22:58:51.603Z,44.56
2023-05-02T23:01:24.287Z,44.83
2023-05-02T23:03:56.954Z,43.90
2023-05-02T23:06:29.603Z,44.75
2023-05-02T23:09:15.440Z,43.89
2023-05-02T23:11:48.067Z,44.23
2023-05-02T23:14:22.886Z,43.62
2023-05-02T23:16:55.544Z,43.59
2023-05-02T23:19:28.141Z,44.90
2023-05-02T23:25:40.574Z,44.93
2023-05-02T23:28:31.333Z,44.72
2023-05-02T23:31:23.734Z,44.60
2023-05-02T23:34:01.811Z,44.70
2023-05-02T23:36:35.160Z,44.61
2023-05-02T23:39:07.758Z,44.88
2023-05-02T23:41:40.290Z,43.84
2023-05-02T23:44:15.691Z,43.93
2023-05-02T23:46:48.435Z,44.15
2023-05-02T23:49:21.554Z,45.05
2023-05-02T23:52:09.968Z,44.88
2023-05-02T23:54:42.463Z,44.77
2023-05-02T23:57:15.275Z,44.86
2023-05-02T23:59:47.992Z,44.83
